sensor_id;sensor_type;location;lat;lon;timestamp;pressure;altitude;pressure_sealevel;temperature;humidity
18533;BME280;9396;51.510;11.934;2022-10-26T00:01:48;100754.78;;;11.35;100.00
18533;BME280;9396;51.510;11.934;2022-10-26T00:04:15;100756.03;;;11.41;100.00
18533;BME280;9396;51.510;11.934;2022-10-26T00:06:41;100748.31;;;11.38;100.00
18533;BME280;9396;51.510;11.934;2022-10-26T00:09:08;100750.16;;;11.37;100.00
18533;BME280;9396;51.510;11.934;2022-10-26T00:11:34;100756.06;;;11.31;100.00
18533;BME280;9396;51.510;11.934;2022-10-26T00:14:01;100754.25;;;11.32;100.00
18533;BME280;9396;51.510;11.934;2022-10-26T00:16:29;100750.91;;;11.30;100.00
18533;BME280;9396;51.510;11.934;2022-10-26T00:18:56;100746.53;;;11.29;100.00
18533;BME280;9396;51.510;11.934;2022-10-26T00:21:22;100758.50;;;11.25;100.00
18533;BME280;9396;51.510;11.934;2022-10-26T00:23:49;100750.09;;;11.20;100.00
18533;BME280;9396;51.510;11.934;2022-10-26T00:26:16;100753.06;;;11.17;100.00
18533;BME280;9396;51.510;11.934;2022-10-26T00:28:42;100757.47;;;11.08;100.00
18533;BME280;9396;51.510;11.934;2022-10-26T00:31:11;100757.47;;;11.08;100.00
18533;BME280;9396;51.510;11.934;2022-10-26T00:33:40;100764.38;;;11.01;100.00
18533;BME280;9396;51.510;11.934;2022-10-26T00:36:08;100769.31;;;10.96;99.89
18533;BME280;9396;51.510;11.934;2022-10-26T00:38:35;100768.47;;;10.96;99.42
18533;BME280;9396;51.510;11.934;2022-10-26T00:41:01;100776.06;;;10.91;99.16
18533;BME280;9396;51.510;11.934;2022-10-26T00:43:38;100772.69;;;10.89;99.43
18533;BME280;9396;51.510;11.934;2022-10-26T00:46:08;100779.97;;;10.87;100.00
18533;BME280;9396;51.510;11.934;2022-10-26T00:48:40;100778.56;;;10.92;100.00
18533;BME280;9396;51.510;11.934;2022-10-26T00:51:10;100785.44;;;10.95;100.00
18533;BME280;9396;51.510;11.934;2022-10-26T00:53:38;100780.91;;;10.95;100.00
18533;BME280;9396;51.510;11.934;2022-10-26T00:56:06;100778.56;;;10.92;100.00
18533;BME280;9396;51.510;11.934;2022-10-26T00:58:33;100766.38;;;10.90;100.00
18533;BME280;9396;51.510;11.934;2022-10-26T01:01:01;100763.72;;;10.90;100.00
18533;BME280;9396;51.510;11.934;2022-10-26T01:03:28;100767.13;;;10.82;100.00
18533;BME280;9396;51.510;11.934;2022-10-26T01:05:57;100763.31;;;10.85;99.60
18533;BME280;9396;51.510;11.934;2022-10-26T01:08:24;100768.78;;;10.83;99.74
18533;BME280;9396;51.510;11.934;2022-10-26T01:10:52;100764.59;;;10.80;99.13
18533;BME280;9396;51.510;11.934;2022-10-26T01:13:20;100772.22;;;10.66;98.92
18533;BME280;9396;51.510;11.934;2022-10-26T01:15:50;100759.94;;;10.55;99.07
18533;BME280;9396;51.510;11.934;2022-10-26T01:18:28;100771.44;;;10.46;98.97
18533;BME280;9396;51.510;11.934;2022-10-26T01:21:28;100763.31;;;10.48;98.60
18533;BME280;9396;51.510;11.934;2022-10-26T01:24:26;100762.06;;;10.42;98.33
18533;BME280;9396;51.510;11.934;2022-10-26T01:27:10;100763.34;;;10.38;98.00
18533;BME280;9396;51.510;11.934;2022-10-26T01:30:09;100756.34;;;10.37;97.98
18533;BME280;9396;51.510;11.934;2022-10-26T01:32:39;100761.38;;;10.31;97.73
18533;BME280;9396;51.510;11.934;2022-10-26T01:35:13;100764.78;;;10.23;98.11
18533;BME280;9396;51.510;11.934;2022-10-26T01:37:45;100755.69;;;10.16;98.27
18533;BME280;9396;51.510;11.934;2022-10-26T01:40:16;100750.22;;;10.08;98.22
18533;BME280;9396;51.510;11.934;2022-10-26T01:42:48;100746.16;;;10.04;98.51
18533;BME280;9396;51.510;11.934;2022-10-26T01:45:18;100744.06;;;9.98;99.34
18533;BME280;9396;51.510;11.934;2022-10-26T01:47:46;100743.78;;;10.01;99.33
18533;BME280;9396;51.510;11.934;2022-10-26T01:50:14;100748.53;;;10.07;99.44
18533;BME280;9396;51.510;11.934;2022-10-26T01:52:42;100741.31;;;10.09;99.14
18533;BME280;9396;51.510;11.934;2022-10-26T01:58:36;100740.16;;;10.12;99.14
18533;BME280;9396;51.510;11.934;2022-10-26T02:01:17;100738.75;;;9.98;99.23
18533;BME280;9396;51.510;11.934;2022-10-26T02:03:52;100740.56;;;9.88;100.00
18533;BME280;9396;51.510;11.934;2022-10-26T02:06:27;100736.09;;;9.79;100.00
18533;BME280;9396;51.510;11.934;2022-10-26T02:09:03;100723.13;;;9.57;100.00
18533;BME280;9396;51.510;11.934;2022-10-26T02:11:37;100733.75;;;9.57;100.00
18533;BME280;9396;51.510;11.934;2022-10-26T02:14:13;100737.94;;;9.69;100.00
18533;BME280;9396;51.510;11.934;2022-10-26T02:16:52;100741.00;;;9.84;100.00
18533;BME280;9396;51.510;11.934;2022-10-26T02:19:32;100732.78;;;9.77;100.00
18533;BME280;9396;51.510;11.934;2022-10-26T02:22:06;100723.09;;;9.76;100.00
18533;BME280;9396;51.510;11.934;2022-10-26T02:24:36;100725.47;;;9.79;100.00
18533;BME280;9396;51.510;11.934;2022-10-26T02:27:07;100729.81;;;9.90;100.00
18533;BME280;9396;51.510;11.934;2022-10-26T02:29:38;100726.31;;;9.89;100.00
18533;BME280;9396;51.510;11.934;2022-10-26T02:32:07;100723.66;;;9.89;100.00
18533;BME280;9396;51.510;11.934;2022-10-26T02:34:36;100715.25;;;9.94;100.00
18533;BME280;9396;51.510;11.934;2022-10-26T02:37:05;100726.28;;;9.99;100.00
18533;BME280;9396;51.510;11.934;2022-10-26T02:39:33;100722.25;;;9.95;100.00
18533;BME280;9396;51.510;11.934;2022-10-26T02:42:04;100719.75;;;9.93;100.00
18533;BME280;9396;51.510;11.934;2022-10-26T02:44:35;100716.66;;;9.88;100.00
18533;BME280;9396;51.510;11.934;2022-10-26T02:47:05;100725.06;;;9.84;100.00
18533;BME280;9396;51.510;11.934;2022-10-26T02:49:32;100719.59;;;9.85;100.00
18533;BME280;9396;51.510;11.934;2022-10-26T02:52:02;100721.97;;;9.88;100.00
18533;BME280;9396;51.510;11.934;2022-10-26T02:54:33;100713.44;;;9.94;100.00
18533;BME280;9396;51.510;11.934;2022-10-26T02:57:06;100712.19;;;9.98;100.00
18533;BME280;9396;51.510;11.934;2022-10-26T02:59:37;100721.13;;;9.97;100.00
18533;BME280;9396;51.510;11.934;2022-10-26T03:02:08;100716.09;;;9.56;100.00
18533;BME280;9396;51.510;11.934;2022-10-26T03:04:37;100717.38;;;9.61;100.00
18533;BME280;9396;51.510;11.934;2022-10-26T03:07:03;100710.97;;;9.73;100.00
18533;BME280;9396;51.510;11.934;2022-10-26T03:09:30;100711.94;;;9.82;100.00
18533;BME280;9396;51.510;11.934;2022-10-26T03:11:57;100716.53;;;9.80;100.00
18533;BME280;9396;51.510;11.934;2022-10-26T03:14:23;100712.63;;;9.65;100.00
18533;BME280;9396;51.510;11.934;2022-10-26T03:16:50;100708.00;;;9.29;100.00
18533;BME280;9396;51.510;11.934;2022-10-26T03:19:18;100723.22;;;9.36;100.00
18533;BME280;9396;51.510;11.934;2022-10-26T03:21:45;100708.88;;;9.48;100.00
18533;BME280;9396;51.510;11.934;2022-10-26T03:24:11;100703.13;;;9.53;100.00
18533;BME280;9396;51.510;11.934;2022-10-26T03:26:38;100707.47;;;9.54;100.00
18533;BME280;9396;51.510;11.934;2022-10-26T03:29:05;100703.53;;;9.58;100.00
18533;BME280;9396;51.510;11.934;2022-10-26T03:31:33;100703.94;;;9.63;100.00
18533;BME280;9396;51.510;11.934;2022-10-26T03:34:00;100709.13;;;9.74;100.00
18533;BME280;9396;51.510;11.934;2022-10-26T03:36:28;100707.88;;;9.78;100.00
18533;BME280;9396;51.510;11.934;2022-10-26T03:38:54;100700.19;;;9.75;100.00
18533;BME280;9396;51.510;11.934;2022-10-26T03:41:21;100693.59;;;9.79;100.00
18533;BME280;9396;51.510;11.934;2022-10-26T03:43:47;100702.00;;;9.84;100.00
18533;BME280;9396;51.510;11.934;2022-10-26T03:46:14;100694.28;;;9.81;99.59
18533;BME280;9396;51.510;11.934;2022-10-26T03:48:40;100698.22;;;9.77;99.20
18533;BME280;9396;51.510;11.934;2022-10-26T03:51:07;100695.44;;;9.50;99.20
18533;BME280;9396;51.510;11.934;2022-10-26T03:53:35;100698.66;;;9.53;99.85
18533;BME280;9396;51.510;11.934;2022-10-26T03:56:02;100694.59;;;9.59;99.65
18533;BME280;9396;51.510;11.934;2022-10-26T03:58:28;100689.56;;;9.56;99.87
18533;BME280;9396;51.510;11.934;2022-10-26T04:00:55;100691.25;;;9.57;99.58
18533;BME280;9396;51.510;11.934;2022-10-26T04:03:22;100694.59;;;9.59;100.00
18533;BME280;9396;51.510;11.934;2022-10-26T04:05:48;100694.31;;;9.62;100.00
18533;BME280;9396;51.510;11.934;2022-10-26T04:08:15;100692.91;;;9.58;99.76
18533;BME280;9396;51.510;11.934;2022-10-26T04:10:44;100685.34;;;9.63;99.52
18533;BME280;9396;51.510;11.934;2022-10-26T04:13:11;100685.66;;;9.60;99.14
18533;BME280;9396;51.510;11.934;2022-10-26T04:15:38;100685.34;;;9.63;98.75
18533;BME280;9396;51.510;11.934;2022-10-26T04:18:04;100683.13;;;9.58;98.25
18533;BME280;9396;51.510;11.934;2022-10-26T04:20:32;100684.53;;;9.53;98.50
18533;BME280;9396;51.510;11.934;2022-10-26T04:23:02;100679.78;;;9.28;99.40
18533;BME280;9396;51.510;11.934;2022-10-26T04:25:29;100678.53;;;9.32;99.61
18533;BME280;9396;51.510;11.934;2022-10-26T04:27:57;100680.06;;;9.34;99.33
18533;BME280;9396;51.510;11.934;2022-10-26T04:30:24;100680.63;;;9.38;99.76
18533;BME280;9396;51.510;11.934;2022-10-26T04:32:51;100690.69;;;9.44;99.87
18533;BME280;9396;51.510;11.934;2022-10-26T04:35:18;100683.41;;;9.46;99.32
18533;BME280;9396;51.510;11.934;2022-10-26T04:37:44;100689.56;;;9.46;99.27
18533;BME280;9396;51.510;11.934;2022-10-26T04:40:11;100687.63;;;9.48;99.01
18533;BME280;9396;51.510;11.934;2022-10-26T04:42:41;100694.44;;;9.51;98.86
18533;BME280;9396;51.510;11.934;2022-10-26T04:45:10;100692.78;;;9.50;98.74
18533;BME280;9396;51.510;11.934;2022-10-26T04:47:37;100686.09;;;9.55;98.75
18533;BME280;9396;51.510;11.934;2022-10-26T04:50:05;100683.28;;;9.57;99.09
18533;BME280;9396;51.510;11.934;2022-10-26T04:52:32;100684.94;;;9.58;99.15
18533;BME280;9396;51.510;11.934;2022-10-26T04:54:59;100691.25;;;9.57;99.31
18533;BME280;9396;51.510;11.934;2022-10-26T04:57:26;100685.94;;;9.57;99.69
18533;BME280;9396;51.510;11.934;2022-10-26T04:59:52;100686.78;;;9.57;99.92
18533;BME280;9396;51.510;11.934;2022-10-26T05:02:20;100691.81;;;9.60;99.28
18533;BME280;9396;51.510;11.934;2022-10-26T05:04:47;100688.31;;;9.60;99.41
18533;BME280;9396;51.510;11.934;2022-10-26T05:07:14;100685.94;;;9.57;99.80
18533;BME280;9396;51.510;11.934;2022-10-26T05:09:40;100687.44;;;9.59;100.00
18533;BME280;9396;51.510;11.934;2022-10-26T05:12:07;100693.31;;;9.63;100.00
18533;BME280;9396;51.510;11.934;2022-10-26T05:14:33;100683.41;;;9.65;99.96
18533;BME280;9396;51.510;11.934;2022-10-26T05:17:00;100682.44;;;9.66;99.88
18533;BME280;9396;51.510;11.934;2022-10-26T05:19:28;100681.03;;;9.62;100.00
18533;BME280;9396;51.510;11.934;2022-10-26T05:21:54;100678.66;;;9.59;100.00
18533;BME280;9396;51.510;11.934;2022-10-26T05:24:21;100688.31;;;9.60;100.00
18533;BME280;9396;51.510;11.934;2022-10-26T05:26:48;100681.03;;;9.62;99.89
18533;BME280;9396;51.510;11.934;2022-10-26T05:29:14;100674.72;;;9.63;99.56
18533;BME280;9396;51.510;11.934;2022-10-26T05:31:41;100672.06;;;9.63;99.63
18533;BME280;9396;51.510;11.934;2022-10-26T05:34:07;100675.03;;;9.60;99.50
18533;BME280;9396;51.510;11.934;2022-10-26T05:36:35;100681.19;;;9.60;99.17
18533;BME280;9396;51.510;11.934;2022-10-26T05:39:02;100684.69;;;9.61;99.08
18533;BME280;9396;51.510;11.934;2022-10-26T05:41:29;100677.28;;;9.55;98.85
18533;BME280;9396;51.510;11.934;2022-10-26T05:43:56;100678.09;;;9.46;99.63
18533;BME280;9396;51.510;11.934;2022-10-26T05:46:22;100685.53;;;9.52;99.72
18533;BME280;9396;51.510;11.934;2022-10-26T05:48:49;100680.91;;;9.54;99.61
18533;BME280;9396;51.510;11.934;2022-10-26T05:51:15;100687.44;;;9.59;99.74
18533;BME280;9396;51.510;11.934;2022-10-26T05:53:43;100687.88;;;9.45;100.00
18533;BME280;9396;51.510;11.934;2022-10-26T05:56:16;100684.66;;;9.42;100.00
18533;BME280;9396;51.510;11.934;2022-10-26T05:58:45;100686.06;;;9.46;100.00
18533;BME280;9396;51.510;11.934;2022-10-26T06:01:17;100688.19;;;9.52;100.00
18533;BME280;9396;51.510;11.934;2022-10-26T06:03:59;100696.56;;;9.57;100.00
18533;BME280;9396;51.510;11.934;2022-10-26T06:06:37;100692.50;;;9.62;100.00
18533;BME280;9396;51.510;11.934;2022-10-26T06:09:08;100694.72;;;9.67;100.00
18533;BME280;9396;51.510;11.934;2022-10-26T06:11:36;100697.78;;;9.72;100.00
18533;BME280;9396;51.510;11.934;2022-10-26T06:14:03;100689.16;;;9.70;100.00
18533;BME280;9396;51.510;11.934;2022-10-26T06:16:40;100694.59;;;9.78;100.00
18533;BME280;9396;51.510;11.934;2022-10-26T06:19:19;100699.91;;;9.78;100.00
18533;BME280;9396;51.510;11.934;2022-10-26T06:21:59;100710.53;;;9.78;100.00
18533;BME280;9396;51.510;11.934;2022-10-26T06:24:35;100705.91;;;9.80;100.00
18533;BME280;9396;51.510;11.934;2022-10-26T06:27:14;100708.00;;;9.77;100.00
18533;BME280;9396;51.510;11.934;2022-10-26T06:29:49;100708.56;;;9.70;100.00
18533;BME280;9396;51.510;11.934;2022-10-26T06:32:21;100705.78;;;9.53;100.00
18533;BME280;9396;51.510;11.934;2022-10-26T06:34:49;100702.44;;;9.60;100.00
18533;BME280;9396;51.510;11.934;2022-10-26T06:37:18;100632.41;;;9.33;100.00
18533;BME280;9396;51.510;11.934;2022-10-26T06:39:48;100695.97;;;9.82;100.00
18533;BME280;9396;51.510;11.934;2022-10-26T06:42:16;100694.59;;;9.88;100.00
18533;BME280;9396;51.510;11.934;2022-10-26T06:44:43;100695.69;;;9.95;100.00
18533;BME280;9396;51.510;11.934;2022-10-26T06:47:15;100697.59;;;10.02;100.00
18533;BME280;9396;51.510;11.934;2022-10-26T06:49:54;100701.41;;;10.00;100.00
18533;BME280;9396;51.510;11.934;2022-10-26T06:52:28;100700.25;;;10.02;100.00
18533;BME280;9396;51.510;11.934;2022-10-26T06:54:59;100694.00;;;10.13;100.00
18533;BME280;9396;51.510;11.934;2022-10-26T06:57:28;100701.72;;;9.87;100.00
18533;BME280;9396;51.510;11.934;2022-10-26T06:59:59;100694.69;;;9.96;100.00
18533;BME280;9396;51.510;11.934;2022-10-26T07:02:27;100699.00;;;10.06;100.00
18533;BME280;9396;51.510;11.934;2022-10-26T07:04:54;100699.28;;;10.22;100.00
18533;BME280;9396;51.510;11.934;2022-10-26T07:07:22;100699.25;;;10.32;100.00
18533;BME280;9396;51.510;11.934;2022-10-26T07:09:50;100702.88;;;10.40;100.00
18533;BME280;9396;51.510;11.934;2022-10-26T07:12:18;100701.22;;;10.39;100.00
18533;BME280;9396;51.510;11.934;2022-10-26T07:14:44;100700.03;;;10.51;100.00
18533;BME280;9396;51.510;11.934;2022-10-26T07:17:11;100693.00;;;10.60;100.00
18533;BME280;9396;51.510;11.934;2022-10-26T07:19:38;100703.72;;;10.68;100.00
18533;BME280;9396;51.510;11.934;2022-10-26T07:22:05;100703.25;;;10.82;100.00
18533;BME280;9396;51.510;11.934;2022-10-26T07:24:31;100706.53;;;10.94;100.00
18533;BME280;9396;51.510;11.934;2022-10-26T07:26:58;100708.25;;;10.95;100.00
18533;BME280;9396;51.510;11.934;2022-10-26T07:29:26;100711.72;;;10.95;100.00
18533;BME280;9396;51.510;11.934;2022-10-26T07:31:53;100709.97;;;11.04;100.00
18533;BME280;9396;51.510;11.934;2022-10-26T07:34:19;100716.88;;;11.24;100.00
18533;BME280;9396;51.510;11.934;2022-10-26T07:36:46;100709.09;;;11.30;100.00
18533;BME280;9396;51.510;11.934;2022-10-26T07:39:12;100718.41;;;11.44;100.00
18533;BME280;9396;51.510;11.934;2022-10-26T07:41:39;100716.81;;;11.51;100.00
18533;BME280;9396;51.510;11.934;2022-10-26T07:44:05;100722.75;;;11.45;100.00
18533;BME280;9396;51.510;11.934;2022-10-26T07:46:33;100714.09;;;11.60;100.00
18533;BME280;9396;51.510;11.934;2022-10-26T07:49:00;100713.75;;;11.73;100.00
18533;BME280;9396;51.510;11.934;2022-10-26T07:51:27;100717.75;;;11.77;100.00
18533;BME280;9396;51.510;11.934;2022-10-26T07:53:53;100712.50;;;11.85;100.00
18533;BME280;9396;51.510;11.934;2022-10-26T07:56:20;100710.53;;;11.87;100.00
18533;BME280;9396;51.510;11.934;2022-10-26T07:58:47;100718.19;;;11.90;100.00
18533;BME280;9396;51.510;11.934;2022-10-26T08:01:14;100708.22;;;11.92;100.00
18533;BME280;9396;51.510;11.934;2022-10-26T08:03:42;100709.19;;;11.91;100.00
18533;BME280;9396;51.510;11.934;2022-10-26T08:06:09;100713.06;;;11.97;100.00
18533;BME280;9396;51.510;11.934;2022-10-26T08:08:36;100712.00;;;12.07;100.00
18533;BME280;9396;51.510;11.934;2022-10-26T08:11:04;100707.19;;;12.11;100.00
18533;BME280;9396;51.510;11.934;2022-10-26T08:13:31;100712.75;;;12.17;100.00
18533;BME280;9396;51.510;11.934;2022-10-26T08:16:01;100708.91;;;12.20;100.00
18533;BME280;9396;51.510;11.934;2022-10-26T08:18:28;100713.78;;;12.24;100.00
18533;BME280;9396;51.510;11.934;2022-10-26T08:21:00;100707.13;;;12.28;100.00
18533;BME280;9396;51.510;11.934;2022-10-26T08:23:27;100717.03;;;12.36;100.00
18533;BME280;9396;51.510;11.934;2022-10-26T08:25:57;100717.91;;;12.44;100.00
18533;BME280;9396;51.510;11.934;2022-10-26T08:28:24;100719.06;;;12.42;100.00
18533;BME280;9396;51.510;11.934;2022-10-26T08:30:50;100713.09;;;12.48;100.00
18533;BME280;9396;51.510;11.934;2022-10-26T08:33:17;100709.13;;;12.52;100.00
18533;BME280;9396;51.510;11.934;2022-10-26T08:35:43;100712.66;;;12.60;100.00
18533;BME280;9396;51.510;11.934;2022-10-26T08:38:11;100713.03;;;12.65;100.00
18533;BME280;9396;51.510;11.934;2022-10-26T08:40:39;100707.03;;;12.63;100.00
18533;BME280;9396;51.510;11.934;2022-10-26T08:43:12;100712.06;;;12.74;100.00
18533;BME280;9396;51.510;11.934;2022-10-26T08:45:46;100700.72;;;12.72;100.00
18533;BME280;9396;51.510;11.934;2022-10-26T08:48:16;100703.09;;;12.83;100.00
18533;BME280;9396;51.510;11.934;2022-10-26T08:50:48;100698.25;;;12.87;100.00
18533;BME280;9396;51.510;11.934;2022-10-26T08:53:23;100710.63;;;12.88;100.00
18533;BME280;9396;51.510;11.934;2022-10-26T08:55:55;100697.78;;;12.91;100.00
18533;BME280;9396;51.510;11.934;2022-10-26T08:58:28;100697.63;;;12.93;100.00
18533;BME280;9396;51.510;11.934;2022-10-26T09:00:55;100704.09;;;12.90;100.00
18533;BME280;9396;51.510;11.934;2022-10-26T09:03:24;100700.88;;;13.05;100.00
18533;BME280;9396;51.510;11.934;2022-10-26T09:06:10;100703.56;;;13.13;100.00
18533;BME280;9396;51.510;11.934;2022-10-26T09:08:46;100703.44;;;13.30;100.00
18533;BME280;9396;51.510;11.934;2022-10-26T09:11:23;100713.66;;;13.43;100.00
18533;BME280;9396;51.510;11.934;2022-10-26T09:14:00;100708.16;;;13.52;100.00
18533;BME280;9396;51.510;11.934;2022-10-26T09:16:32;100700.81;;;13.54;100.00
18533;BME280;9396;51.510;11.934;2022-10-26T09:19:18;100706.97;;;13.55;100.00
18533;BME280;9396;51.510;11.934;2022-10-26T09:21:55;100704.66;;;13.68;100.00
18533;BME280;9396;51.510;11.934;2022-10-26T09:24:29;100699.31;;;13.68;100.00
18533;BME280;9396;51.510;11.934;2022-10-26T09:27:02;100711.84;;;13.75;100.00
18533;BME280;9396;51.510;11.934;2022-10-26T09:29:37;100702.00;;;13.84;100.00
18533;BME280;9396;51.510;11.934;2022-10-26T09:32:12;100702.16;;;13.82;100.00
18533;BME280;9396;51.510;11.934;2022-10-26T09:34:42;100706.00;;;13.96;100.00
18533;BME280;9396;51.510;11.934;2022-10-26T09:37:14;100711.66;;;14.01;100.00
18533;BME280;9396;51.510;11.934;2022-10-26T09:39:50;100711.00;;;13.99;100.00
18533;BME280;9396;51.510;11.934;2022-10-26T09:42:25;100708.00;;;14.02;100.00
18533;BME280;9396;51.510;11.934;2022-10-26T09:44:57;100716.00;;;14.10;100.00
18533;BME280;9396;51.510;11.934;2022-10-26T09:47:32;100712.69;;;14.16;100.00
18533;BME280;9396;51.510;11.934;2022-10-26T09:50:05;100716.03;;;14.26;100.00
18533;BME280;9396;51.510;11.934;2022-10-26T09:52:32;100716.69;;;14.36;100.00
18533;BME280;9396;51.510;11.934;2022-10-26T09:55:00;100717.50;;;14.37;100.00
18533;BME280;9396;51.510;11.934;2022-10-26T09:57:27;100711.13;;;14.46;100.00
18533;BME280;9396;51.510;11.934;2022-10-26T09:59:55;100719.00;;;14.55;100.00
18533;BME280;9396;51.510;11.934;2022-10-26T10:02:32;100670.72;;;14.33;100.00
18533;BME280;9396;51.510;11.934;2022-10-26T10:04:59;100715.69;;;14.45;100.00
18533;BME280;9396;51.510;11.934;2022-10-26T10:07:26;100718.19;;;14.47;100.00
18533;BME280;9396;51.510;11.934;2022-10-26T10:10:10;100722.34;;;14.49;100.00
18533;BME280;9396;51.510;11.934;2022-10-26T10:12:40;100724.00;;;14.58;100.00
18533;BME280;9396;51.510;11.934;2022-10-26T10:15:16;100724.31;;;14.63;100.00
18533;BME280;9396;51.510;11.934;2022-10-26T10:17:46;100718.63;;;14.66;100.00
18533;BME280;9396;51.510;11.934;2022-10-26T10:20:17;100714.56;;;14.70;99.92
18533;BME280;9396;51.510;11.934;2022-10-26T10:22:58;100716.56;;;14.84;100.00
18533;BME280;9396;51.510;11.934;2022-10-26T10:25:34;100724.50;;;15.00;100.00
18533;BME280;9396;51.510;11.934;2022-10-26T10:28:02;100717.75;;;15.13;100.00
18533;BME280;9396;51.510;11.934;2022-10-26T10:30:30;100720.75;;;15.18;100.00
18533;BME280;9396;51.510;11.934;2022-10-26T10:33:05;100721.75;;;15.17;100.00
18533;BME280;9396;51.510;11.934;2022-10-26T10:35:32;100735.06;;;15.33;100.00
18533;BME280;9396;51.510;11.934;2022-10-26T10:37:59;100730.19;;;15.44;99.29
18533;BME280;9396;51.510;11.934;2022-10-26T10:40:27;100737.69;;;15.49;100.00
18533;BME280;9396;51.510;11.934;2022-10-26T10:43:03;100737.63;;;15.57;99.82
18533;BME280;9396;51.510;11.934;2022-10-26T10:45:32;100734.88;;;15.65;98.73
18533;BME280;9396;51.510;11.934;2022-10-26T10:48:01;100725.84;;;15.66;98.43
18533;BME280;9396;51.510;11.934;2022-10-26T10:50:29;100724.22;;;15.57;98.69
18533;BME280;9396;51.510;11.934;2022-10-26T10:53:12;100729.63;;;15.49;97.00
18533;BME280;9396;51.510;11.934;2022-10-26T10:55:41;100731.50;;;15.48;98.07
18533;BME280;9396;51.510;11.934;2022-10-26T10:58:18;100720.97;;;15.47;97.54
18533;BME280;9396;51.510;11.934;2022-10-26T11:00:49;100735.66;;;15.51;97.66
18533;BME280;9396;51.510;11.934;2022-10-26T11:03:49;100736.03;;;15.48;97.74
18533;BME280;9396;51.510;11.934;2022-10-26T11:06:24;100685.44;;;15.14;99.59
18533;BME280;9396;51.510;11.934;2022-10-26T11:08:55;100734.19;;;15.48;98.29
18533;BME280;9396;51.510;11.934;2022-10-26T11:11:27;100739.84;;;15.53;98.30
18533;BME280;9396;51.510;11.934;2022-10-26T11:14:01;100740.84;;;15.52;98.63
18533;BME280;9396;51.510;11.934;2022-10-26T11:16:33;100743.19;;;15.55;98.74
18533;BME280;9396;51.510;11.934;2022-10-26T11:19:04;100749.34;;;15.56;98.93
18533;BME280;9396;51.510;11.934;2022-10-26T11:21:35;100738.78;;;15.62;99.18
18533;BME280;9396;51.510;11.934;2022-10-26T11:24:10;100744.13;;;15.62;99.76
18533;BME280;9396;51.510;11.934;2022-10-26T11:26:43;100735.84;;;15.72;99.60
18533;BME280;9396;51.510;11.934;2022-10-26T11:29:20;100738.88;;;15.69;100.00
18533;BME280;9396;51.510;11.934;2022-10-26T11:31:52;100738.88;;;15.69;99.31
18533;BME280;9396;51.510;11.934;2022-10-26T11:34:28;100735.22;;;15.70;99.42
18533;BME280;9396;51.510;11.934;2022-10-26T11:37:01;100740.13;;;15.58;99.99
18533;BME280;9396;51.510;11.934;2022-10-26T11:39:35;100735.44;;;15.60;100.00
18533;BME280;9396;51.510;11.934;2022-10-26T11:42:10;100742.63;;;15.60;100.00
18533;BME280;9396;51.510;11.934;2022-10-26T11:44:42;100734.78;;;15.58;100.00
18533;BME280;9396;51.510;11.934;2022-10-26T11:47:15;100746.03;;;15.54;100.00
18533;BME280;9396;51.510;11.934;2022-10-26T11:49:46;100748.41;;;15.49;100.00
18533;BME280;9396;51.510;11.934;2022-10-26T11:52:19;100750.38;;;15.55;100.00
18533;BME280;9396;51.510;11.934;2022-10-26T11:54:52;100745.13;;;15.61;100.00
18533;BME280;9396;51.510;11.934;2022-10-26T11:57:20;100746.28;;;15.67;100.00
18533;BME280;9396;51.510;11.934;2022-10-26T11:59:52;100746.75;;;15.70;100.00
18533;BME280;9396;51.510;11.934;2022-10-26T12:02:21;100745.09;;;15.69;100.00
18533;BME280;9396;51.510;11.934;2022-10-26T12:04:52;100751.34;;;15.62;100.00
18533;BME280;9396;51.510;11.934;2022-10-26T12:07:23;100745.63;;;15.65;100.00
18533;BME280;9396;51.510;11.934;2022-10-26T12:09:50;100743.28;;;15.62;100.00
18533;BME280;9396;51.510;11.934;2022-10-26T12:12:22;100748.63;;;15.70;100.00
18533;BME280;9396;51.510;11.934;2022-10-26T12:14:56;100748.78;;;15.68;100.00
18533;BME280;9396;51.510;11.934;2022-10-26T12:17:28;100743.66;;;15.59;100.00
18533;BME280;9396;51.510;11.934;2022-10-26T12:20:02;100740.72;;;15.68;100.00
18533;BME280;9396;51.510;11.934;2022-10-26T12:22:32;100738.19;;;15.75;100.00
18533;BME280;9396;51.510;11.934;2022-10-26T12:25:17;100738.13;;;15.83;100.00
18533;BME280;9396;51.510;11.934;2022-10-26T12:27:50;100741.16;;;15.80;100.00
18533;BME280;9396;51.510;11.934;2022-10-26T12:30:27;100739.63;;;15.85;100.00
18533;BME280;9396;51.510;11.934;2022-10-26T12:32:55;100736.09;;;15.85;100.00
18533;BME280;9396;51.510;11.934;2022-10-26T12:35:33;100729.88;;;15.84;100.00
18533;BME280;9396;51.510;11.934;2022-10-26T12:38:01;100732.69;;;15.91;100.00
18533;BME280;9396;51.510;11.934;2022-10-26T12:41:10;100733.03;;;15.88;99.58
18533;BME280;9396;51.510;11.934;2022-10-26T12:43:40;100737.69;;;15.94;99.92
18533;BME280;9396;51.510;11.934;2022-10-26T12:46:40;100739.19;;;15.96;100.00
18533;BME280;9396;51.510;11.934;2022-10-26T12:52:17;100739.59;;;16.08;100.00
18533;BME280;9396;51.510;11.934;2022-10-26T12:54:48;100738.22;;;16.12;100.00
18533;BME280;9396;51.510;11.934;2022-10-26T12:57:28;100742.22;;;16.16;100.00
18533;BME280;9396;51.510;11.934;2022-10-26T12:59:59;100742.38;;;16.15;99.69
18533;BME280;9396;51.510;11.934;2022-10-26T13:02:39;100735.63;;;16.19;98.99
18533;BME280;9396;51.510;11.934;2022-10-26T13:05:55;100732.56;;;16.22;99.27
18533;BME280;9396;51.510;11.934;2022-10-26T13:08:28;100729.88;;;16.22;98.72
18533;BME280;9396;51.510;11.934;2022-10-26T13:11:06;100714.91;;;16.27;99.58
18533;BME280;9396;51.510;11.934;2022-10-26T13:13:40;100731.19;;;16.26;99.08